Carnival Splendor — 3EUS — position and weather

sailwx.info

Track history (hours):
 
Tides and Currents Weather Stations Pressure Air Temp Water Temp Dewpoint Dewpoint Depression Visibility Wind Speed Wind Dir Waves Ship Positions

Carnival Splendor

Last reported at 2016-Sep-25 00:26 UTC. Time now 2016-Sep-27 17:20 UTC.
Position N 26°13' W 079°14'.

Length 290 m; draft 8.3 m.

Type: Ship. MMSI: 372808000.

Date/timePositionNaut miles runAvg speedWind from/ knotsBaromVisibWave heightAir tempDewpointWater temp
2016-Sep-25 00:26N 26°13' W 079°14'3317.7
2016-Sep-24 22:33N 25°56' W 079°46'1817.9
2016-Sep-24 21:34N 25°47' W 080°03'6 3.1
2016-Sep-24 19:32N 25°47' W 080°10'0 0.0
2016-Sep-24 18:32N 25°47' W 080°10'0 0.0
2016-Sep-24 17:31N 25°47' W 080°10'0 0.0
2016-Sep-24 16:31N 25°47' W 080°10'0 0.0
2016-Sep-24 14:33N 25°47' W 080°10'0 0.0
2016-Sep-24 12:32N 25°47' W 080°10'0 0.0
2016-Sep-24 10:31N 25°47' W 080°10'0 0.1
2016-Sep-24 09:34N 25°47' W 080°10'48114.0
2016-Sep-22 23:17N 20°40' W 086°53'12 4.5
2016-Sep-22 20:31N 20°29' W 086°59'8 1.0
2016-Sep-22 12:33N 20°36' W 086°56'  
2016-Sep-18 19:33N 25°47' W 080°10'0 0.0
2016-Sep-18 15:31N 25°47' W 080°10'0 0.0
2016-Sep-18 14:31N 25°47' W 080°10'0 0.0
2016-Sep-18 10:32N 25°47' W 080°10'1 0.7
2016-Sep-18 09:34N 25°47' W 080°11'  
Track history (hours):
 
Tides and Currents Weather Stations Pressure Air Temp Water Temp Dewpoint Dewpoint Depression Visibility Wind Speed Wind Dir Waves Ship Positions

Carnival Splendor

Last reported at 2016-Sep-25 00:26 UTC. Time now 2016-Sep-27 17:20 UTC.
Position N 26°13' W 079°14'.

Length 290 m; draft 8.3 m.

Type: Ship. MMSI: 372808000.

Date/timePositionNaut miles runAvg speedWind from/ knotsBaromVisibWave heightAir tempDewpointWater temp
2016-Sep-25 00:26N 26°13' W 079°14'3317.7
2016-Sep-24 22:33N 25°56' W 079°46'1817.9
2016-Sep-24 21:34N 25°47' W 080°03'6 3.1
2016-Sep-24 19:32N 25°47' W 080°10'0 0.0
2016-Sep-24 18:32N 25°47' W 080°10'0 0.0
2016-Sep-24 17:31N 25°47' W 080°10'0 0.0
2016-Sep-24 16:31N 25°47' W 080°10'0 0.0
2016-Sep-24 14:33N 25°47' W 080°10'0 0.0
2016-Sep-24 12:32N 25°47' W 080°10'0 0.0
2016-Sep-24 10:31N 25°47' W 080°10'0 0.1
2016-Sep-24 09:34N 25°47' W 080°10'48114.0
2016-Sep-22 23:17N 20°40' W 086°53'12 4.5
2016-Sep-22 20:31N 20°29' W 086°59'8 1.0
2016-Sep-22 12:33N 20°36' W 086°56'  
2016-Sep-18 19:33N 25°47' W 080°10'0 0.0
2016-Sep-18 15:31N 25°47' W 080°10'0 0.0
2016-Sep-18 14:31N 25°47' W 080°10'0 0.0
2016-Sep-18 10:32N 25°47' W 080°10'1 0.7
2016-Sep-18 09:34N 25°47' W 080°11'  

Dump ship's entire track history